Time;durP1;ratioP1;P1;durP2;ratioP2;P2;SDS_P1;SDS_P2;PMS_P1;PMS_P2;Temp;Humidity;BMP_temperature;BMP_pressure;BME280_temperature;BME280_humidity;BME280_pressure;Samples;Min_cycle;Max_cycle;Signal;HPM_P1;HPM_P2
2022/06/18 00:00:27;;;;;;;3.08;2.50;;;20.20;99.90;;;;;;5090354;28;20047;-72
2022/06/18 00:02:53;;;;;;;3.42;2.50;;;20.10;99.90;;;;;;5090475;28;20052;-73
2022/06/18 00:05:21;;;;;;;3.70;3.03;;;20.00;99.90;;;;;;5090708;28;20147;-72
2022/06/18 00:07:50;;;;;;;4.63;2.65;;;19.90;99.90;;;;;;5090378;28;20480;-73
2022/06/18 00:10:22;;;;;;;4.00;2.67;;;19.80;99.90;;;;;;5091042;28;20052;-72
2022/06/18 00:15:37;;;;;;;3.42;2.60;;;19.60;99.90;;;;;;5090825;28;20056;-72
2022/06/18 00:18:05;;;;;;;3.90;2.65;;;19.50;99.90;;;;;;5093480;28;20510;-73
2022/06/18 00:20:34;;;;;;;3.38;2.50;;;19.40;99.90;;;;;;5094302;28;20071;-72
2022/06/18 00:23:01;;;;;;;6.15;2.78;;;19.30;99.90;;;;;;5094583;28;20164;-72
2022/06/18 00:25:39;;;;;;;3.45;2.75;;;19.30;99.90;;;;;;5093861;28;20407;-73
2022/06/18 00:28:21;;;;;;;4.38;2.90;;;19.20;99.90;;;;;;5094629;28;20097;-73
2022/06/18 00:30:48;;;;;;;4.00;2.60;;;19.30;99.90;;;;;;5079958;28;20043;-72
2022/06/18 00:33:13;;;;;;;3.00;2.67;;;19.30;99.90;;;;;;5094228;28;20089;-73
2022/06/18 00:35:40;;;;;;;3.60;3.10;;;19.20;99.90;;;;;;5094654;28;20124;-73
2022/06/18 00:38:11;;;;;;;4.78;3.15;;;19.20;99.90;;;;;;5094213;28;20403;-72
2022/06/18 00:40:40;;;;;;;4.57;3.00;;;19.30;99.90;;;;;;5093909;28;20047;-73
2022/06/18 00:43:15;;;;;;;3.72;2.80;;;19.30;99.90;;;;;;5086486;28;20047;-73
2022/06/18 00:45:40;;;;;;;5.38;3.03;;;19.30;99.90;;;;;;5094010;28;20108;-73
2022/06/18 00:48:23;;;;;;;3.80;3.00;;;19.30;99.90;;;;;;5093765;28;20048;-73
2022/06/18 00:50:57;;;;;;;3.45;2.65;;;19.20;99.90;;;;;;5084542;28;20048;-73
2022/06/18 00:53:33;;;;;;;4.57;3.22;;;19.20;99.90;;;;;;5094012;28;20058;-74
2022/06/18 00:56:08;;;;;;;5.47;3.28;;;19.10;99.90;;;;;;5094008;28;20062;-73
2022/06/18 00:58:46;;;;;;;3.92;3.20;;;19.00;99.90;;;;;;5093563;28;20055;-73
2022/06/18 01:01:16;;;;;;;4.50;3.28;;;19.00;99.90;;;;;;5081699;28;20122;-73
2022/06/18 01:03:44;;;;;;;4.95;3.28;;;19.00;99.90;;;;;;5093710;28;20083;-73
2022/06/18 01:06:18;;;;;;;3.55;3.20;;;19.10;99.90;;;;;;5079815;28;20491;-74
2022/06/18 01:08:46;;;;;;;3.95;3.22;;;19.10;99.90;;;;;;5086787;28;20135;-74
2022/06/18 01:11:19;;;;;;;7.50;3.72;;;19.20;99.90;;;;;;5093757;28;20044;-72
2022/06/18 01:13:45;;;;;;;4.82;3.15;;;19.20;99.90;;;;;;5061969;28;20047;-72
2022/06/18 01:16:11;;;;;;;5.88;3.92;;;19.20;99.90;;;;;;5093646;28;20059;-72
2022/06/18 01:18:38;;;;;;;4.72;3.90;;;19.10;99.90;;;;;;5093816;28;20052;-72
2022/06/18 01:21:25;;;;;;;7.32;3.22;;;19.00;99.90;;;;;;5093222;28;20047;-72
2022/06/18 01:24:03;;;;;;;5.20;3.78;;;18.90;99.90;;;;;;5093308;28;20048;-73
2022/06/18 01:26:29;;;;;;;6.13;3.70;;;18.80;99.90;;;;;;5093383;28;20048;-73
2022/06/18 01:28:54;;;;;;;4.22;3.42;;;18.80;99.90;;;;;;5091869;28;20403;-73
2022/06/18 01:31:20;;;;;;;5.10;3.50;;;18.90;99.90;;;;;;5092754;28;20043;-73
2022/06/18 01:33:47;;;;;;;4.85;3.65;;;18.90;99.90;;;;;;5092878;28;20044;-72
2022/06/18 01:36:14;;;;;;;5.47;3.97;;;19.00;99.90;;;;;;5092940;28;20071;-73
2022/06/18 01:38:44;;;;;;;6.80;3.63;;;18.90;99.90;;;;;;5080715;28;20044;-73
2022/06/18 01:44:05;;;;;;;4.07;3.55;;;19.00;99.90;;;;;;5092910;28;20044;-72
2022/06/18 01:46:32;;;;;;;5.22;3.75;;;18.90;99.90;;;;;;5088609;28;20396;-72
2022/06/18 01:49:01;;;;;;;4.35;3.85;;;19.00;99.90;;;;;;5092733;28;20523;-72
2022/06/18 01:51:36;;;;;;;5.18;3.63;;;19.00;99.90;;;;;;5093011;28;20071;-72
2022/06/18 01:54:11;;;;;;;4.95;3.80;;;19.00;99.90;;;;;;5059709;28;20039;-72
2022/06/18 01:56:42;;;;;;;5.65;3.95;;;19.00;99.90;;;;;;5093007;28;20052;-73
2022/06/18 01:59:13;;;;;;;5.65;4.00;;;19.00;99.90;;;;;;5092742;28;20044;-72
2022/06/18 02:01:42;;;;;;;5.43;4.38;;;19.00;99.90;;;;;;5092716;28;20404;-74
2022/06/18 02:04:07;;;;;;;5.18;4.30;;;19.00;99.90;;;;;;5092109;28;20095;-72
2022/06/18 02:06:36;;;;;;;7.28;4.05;;;18.90;99.90;;;;;;5092714;28;20055;-72
2022/06/18 02:09:06;;;;;;;4.88;4.40;;;18.80;99.90;;;;;;5082792;28;20496;-73
2022/06/18 02:11:31;;;;;;;5.20;4.30;;;18.80;99.90;;;;;;5081502;28;20127;-74
2022/06/18 02:14:03;;;;;;;5.68;4.22;;;18.80;99.90;;;;;;5091605;28;20459;-71
2022/06/18 02:16:34;;;;;;;6.32;4.57;;;18.80;99.90;;;;;;5092342;28;20530;-72
2022/06/18 02:19:03;;;;;;;5.68;4.45;;;18.80;99.90;;;;;;5092370;28;20141;-73
2022/06/18 02:21:31;;;;;;;4.85;4.35;;;18.70;99.90;;;;;;5092134;28;20105;-72
2022/06/18 02:23:57;;;;;;;5.53;4.53;;;18.70;99.90;;;;;;5057497;28;20135;-73
2022/06/18 02:26:25;;;;;;;6.15;4.78;;;18.70;99.90;;;;;;5092338;28;20118;-72
2022/06/18 02:28:52;;;;;;;7.18;4.90;;;18.70;99.90;;;;;;5091771;28;20046;-73
2022/06/18 02:31:23;;;;;;;6.07;4.93;;;18.70;99.90;;;;;;5084146;28;20056;-72
2022/06/18 02:33:51;;;;;;;7.60;5.47;;;18.70;99.90;;;;;;5091999;28;20050;-73
2022/06/18 02:36:28;;;;;;;6.18;5.20;;;18.80;99.90;;;;;;5091968;28;20123;-72
2022/06/18 02:39:25;;;;;;;5.38;4.88;;;18.80;99.90;;;;;;5091768;28;20549;-72
2022/06/18 02:42:04;;;;;;;8.00;5.27;;;18.90;99.90;;;;;;5091430;28;20400;-72
2022/06/18 02:44:30;;;;;;;7.75;5.03;;;18.90;99.90;;;;;;5091799;28;20619;-72
2022/06/18 02:46:56;;;;;;;6.63;5.03;;;18.90;99.90;;;;;;5092157;28;20058;-72
2022/06/18 02:49:22;;;;;;;5.45;4.63;;;18.90;99.90;;;;;;5091625;28;20485;-72
2022/06/18 02:51:48;;;;;;;7.10;5.32;;;18.90;99.90;;;;;;5091701;28;20056;-72
2022/06/18 02:54:14;;;;;;;7.32;5.40;;;18.80;99.90;;;;;;5091407;28;20062;-73
2022/06/18 02:56:40;;;;;;;7.60;5.45;;;18.80;99.90;;;;;;5081210;28;20446;-72
2022/06/18 02:59:06;;;;;;;7.38;5.38;;;18.80;99.90;;;;;;5079096;28;20043;-72
2022/06/18 03:01:32;;;;;;;7.70;5.20;;;18.70;99.90;;;;;;5091116;28;20113;-72
2022/06/18 03:04:00;;;;;;;5.93;5.28;;;18.60;99.90;;;;;;5091196;28;20064;-72
2022/06/18 03:06:29;;;;;;;7.80;5.53;;;18.60;99.90;;;;;;5091106;28;20046;-72
2022/06/18 03:08:57;;;;;;;6.25;5.15;;;18.60;99.90;;;;;;5091295;28;20059;-72
2022/06/18 03:14:10;;;;;;;6.50;5.45;;;18.50;99.90;;;;;;5077392;28;20051;-73
2022/06/18 03:16:36;;;;;;;8.77;6.10;;;18.40;99.90;;;;;;5091381;28;20055;-73
2022/06/18 03:19:04;;;;;;;6.45;5.47;;;18.40;99.90;;;;;;5082685;28;20508;-72
2022/06/18 03:21:41;;;;;;;7.53;5.75;;;18.30;99.90;;;;;;5091410;28;20056;-72
2022/06/18 03:24:07;;;;;;;6.03;5.15;;;18.30;99.90;;;;;;5091122;28;20097;-72
2022/06/18 03:26:35;;;;;;;6.93;5.10;;;18.30;99.90;;;;;;5091145;28;20086;-72
2022/06/18 03:29:02;;;;;;;6.82;6.13;;;18.20;99.90;;;;;;5076283;28;20131;-73
2022/06/18 03:31:29;;;;;;;7.90;6.80;;;18.20;99.90;;;;;;5088512;28;20048;-72
2022/06/18 03:33:55;;;;;;;8.60;5.78;;;18.20;99.90;;;;;;5077790;28;20117;-72
2022/06/18 03:36:21;;;;;;;7.90;5.90;;;18.20;99.90;;;;;;5089038;28;20051;-73
2022/06/18 03:38:49;;;;;;;6.57;5.40;;;18.20;99.90;;;;;;5089521;28;20051;-72
2022/06/18 03:41:16;;;;;;;7.40;5.95;;;18.20;99.90;;;;;;5090868;28;20446;-72
2022/06/18 03:43:42;;;;;;;7.97;5.90;;;18.10;99.90;;;;;;5090745;28;20040;-72
2022/06/18 03:46:11;;;;;;;7.03;6.25;;;18.10;99.90;;;;;;5063031;28;20135;-73
2022/06/18 03:49:01;;;;;;;8.45;6.20;;;18.20;99.90;;;;;;5090479;28;20048;-72
2022/06/18 03:51:27;;;;;;;7.15;6.32;;;18.10;99.90;;;;;;5091785;28;20044;-71
2022/06/18 03:53:54;;;;;;;7.45;6.18;;;18.10;99.90;;;;;;5095069;28;20101;-73
2022/06/18 03:56:23;;;;;;;7.50;6.40;;;18.10;99.90;;;;;;5095186;28;20044;-72
2022/06/18 03:58:50;;;;;;;8.25;6.57;;;18.10;99.90;;;;;;5094872;28;20413;-73
2022/06/18 04:01:19;;;;;;;9.50;6.13;;;18.20;99.90;;;;;;5077860;28;20554;-72
2022/06/18 04:03:45;;;;;;;8.55;6.70;;;18.20;99.90;;;;;;5091457;28;20083;-73
2022/06/18 04:06:11;;;;;;;7.90;6.40;;;18.20;99.90;;;;;;5094808;28;20095;-72
2022/06/18 04:08:36;;;;;;;9.80;6.78;;;18.20;99.90;;;;;;5094781;28;20400;-73
2022/06/18 04:11:02;;;;;;;9.57;6.60;;;18.20;99.90;;;;;;5095183;28;20058;-72
2022/06/18 04:13:29;;;;;;;8.52;6.75;;;18.20;99.90;;;;;;5094467;28;20044;-73
2022/06/18 04:15:55;;;;;;;9.73;6.72;;;18.20;99.90;;;;;;5094624;28;20047;-72
2022/06/18 04:18:21;;;;;;;9.00;6.47;;;18.30;99.90;;;;;;5094513;28;20157;-72
2022/06/18 04:20:47;;;;;;;10.05;7.25;;;18.30;99.90;;;;;;5084824;28;20110;-73
2022/06/18 04:23:15;;;;;;;7.45;6.75;;;18.30;99.90;;;;;;5076681;28;20048;-72
2022/06/18 04:25:42;;;;;;;8.95;6.95;;;18.30;99.90;;;;;;5093319;28;20572;-72
2022/06/18 04:28:09;;;;;;;9.05;6.63;;;18.30;99.90;;;;;;5094355;28;20472;-73
2022/06/18 04:30:35;;;;;;;9.60;6.75;;;18.40;99.90;;;;;;5094191;28;20044;-72
2022/06/18 04:33:01;;;;;;;10.23;7.10;;;18.40;99.90;;;;;;5093668;28;20044;-73
2022/06/18 04:35:27;;;;;;;8.35;7.00;;;18.50;99.90;;;;;;5094415;28;20052;-73
2022/06/18 04:37:53;;;;;;;8.95;7.80;;;18.50;99.90;;;;;;5094153;28;20396;-71
2022/06/18 04:40:31;;;;;;;7.78;6.95;;;18.50;99.90;;;;;;5093972;28;20070;-72
2022/06/18 04:43:05;;;;;;;7.93;6.63;;;18.60;99.90;;;;;;5083425;28;20052;-73
2022/06/18 04:45:31;;;;;;;7.68;6.60;;;18.60;99.90;;;;;;5094064;28;20040;-71
2022/06/18 04:47:57;;;;;;;9.45;7.00;;;18.70;99.90;;;;;;5094093;28;20043;-72
2022/06/18 04:50:26;;;;;;;8.18;6.78;;;18.70;99.90;;;;;;5094185;28;20051;-71
2022/06/18 04:52:52;;;;;;;8.77;7.20;;;18.70;99.90;;;;;;5094004;28;20059;-71
2022/06/18 04:55:17;;;;;;;8.20;7.18;;;18.80;99.90;;;;;;5093186;28;20036;-72
2022/06/18 04:57:43;;;;;;;9.00;7.43;;;18.80;99.90;;;;;;5093692;28;20044;-72
2022/06/18 05:00:10;;;;;;;8.57;7.68;;;18.90;99.90;;;;;;5070072;28;20075;-73
2022/06/18 05:02:36;;;;;;;11.00;7.25;;;18.90;99.90;;;;;;5093044;28;20073;-72
2022/06/18 05:05:05;;;;;;;10.98;6.85;;;18.90;99.90;;;;;;5058741;28;20048;-71
2022/06/18 05:07:31;;;;;;;11.82;7.88;;;18.90;99.90;;;;;;5093901;28;20093;-72
2022/06/18 05:09:56;;;;;;;8.63;7.72;;;19.00;99.90;;;;;;5093767;28;20484;-71
2022/06/18 05:12:22;;;;;;;9.70;7.43;;;19.10;99.90;;;;;;5093628;28;20062;-73
2022/06/18 05:14:48;;;;;;;10.32;7.50;;;19.10;99.90;;;;;;5093444;28;20048;-73
2022/06/18 05:17:21;;;;;;;10.10;8.18;;;19.20;99.90;;;;;;5093533;28;20044;-71
2022/06/18 05:19:47;;;;;;;10.48;8.25;;;19.20;99.90;;;;;;5093527;28;20488;-72
2022/06/18 05:22:13;;;;;;;12.90;7.90;;;19.20;99.90;;;;;;5093611;28;20572;-72
2022/06/18 05:24:39;;;;;;;12.88;8.55;;;19.30;99.90;;;;;;5093055;28;20085;-73
2022/06/18 05:27:05;;;;;;;11.07;7.88;;;19.30;99.90;;;;;;5093435;28;20052;-72
2022/06/18 05:29:31;;;;;;;10.00;7.97;;;19.30;99.90;;;;;;5093247;28;20052;-72
2022/06/18 05:31:57;;;;;;;9.10;8.20;;;19.40;99.90;;;;;;5074800;28;20443;-71
2022/06/18 05:34:23;;;;;;;8.65;7.75;;;19.40;99.90;;;;;;5091964;28;20497;-71
2022/06/18 05:36:49;;;;;;;12.02;8.52;;;19.50;99.90;;;;;;5092972;28;20146;-71
2022/06/18 05:39:17;;;;;;;12.65;8.63;;;19.50;99.90;;;;;;5092970;28;20051;-72
2022/06/18 05:41:43;;;;;;;9.32;8.20;;;19.60;99.90;;;;;;5084304;28;20056;-72
2022/06/18 05:44:09;;;;;;;12.40;9.05;;;19.60;99.90;;;;;;5092563;28;20046;-72
2022/06/18 05:46:34;;;;;;;12.30;8.90;;;19.60;99.90;;;;;;5092952;28;20396;-72
2022/06/18 05:49:00;;;;;;;9.93;8.05;;;19.70;99.90;;;;;;5092946;28;20453;-72
2022/06/18 05:51:26;;;;;;;10.20;8.07;;;19.70;99.90;;;;;;5092905;28;20071;-72
2022/06/18 05:53:52;;;;;;;12.27;8.40;;;19.70;99.90;;;;;;5092994;28;20048;-71
2022/06/18 05:56:18;;;;;;;11.10;8.02;;;19.80;99.90;;;;;;5092663;28;20119;-72
2022/06/18 05:58:44;;;;;;;14.05;8.93;;;19.80;99.90;;;;;;5092671;28;20058;-72
2022/06/18 06:01:10;;;;;;;10.75;8.02;;;19.90;99.90;;;;;;5092143;28;20052;-72
2022/06/18 06:03:36;;;;;;;10.07;7.68;;;20.00;99.90;;;;;;5092196;28;20052;-72
2022/06/18 06:06:02;;;;;;;11.05;8.60;;;20.10;99.90;;;;;;5092030;28;20056;-72
2022/06/18 06:08:28;;;;;;;13.45;8.63;;;20.10;99.90;;;;;;5092968;28;20564;-71
2022/06/18 06:13:38;;;;;;;13.73;9.20;;;20.20;99.90;;;;;;5092092;28;20044;-72
2022/06/18 06:16:04;;;;;;;12.48;9.00;;;20.30;99.90;;;;;;5074356;28;20044;-72
2022/06/18 06:18:30;;;;;;;11.98;9.27;;;20.30;99.90;;;;;;5092304;28;20509;-72
2022/06/18 06:20:58;;;;;;;14.55;8.35;;;20.30;99.90;;;;;;5092393;28;20076;-72
2022/06/18 06:23:25;;;;;;;11.13;8.48;;;20.30;99.90;;;;;;5092198;28;20044;-72
2022/06/18 06:25:51;;;;;;;12.65;7.93;;;20.30;99.90;;;;;;5092092;28;20116;-72
2022/06/18 06:28:26;;;;;;;11.45;7.72;;;20.40;99.90;;;;;;5091999;28;20040;-72
2022/06/18 06:30:53;;;;;;;10.05;7.60;;;20.40;99.90;;;;;;5081629;28;20052;-72
2022/06/18 06:33:19;;;;;;;10.70;7.32;;;20.50;99.90;;;;;;5091459;28;20054;-73
2022/06/18 06:35:50;;;;;;;11.35;8.25;;;20.60;99.90;;;;;;5092212;28;20048;-72
2022/06/18 06:38:15;;;;;;;10.95;8.05;;;20.70;99.90;;;;;;5091952;28;20507;-72
2022/06/18 06:40:43;;;;;;;9.38;7.15;;;20.80;99.90;;;;;;5082253;28;20036;-72
2022/06/18 06:43:13;;;;;;;10.02;7.18;;;20.80;99.90;;;;;;5073481;28;20502;-71
2022/06/18 06:45:39;;;;;;;10.30;7.85;;;20.90;99.90;;;;;;5091879;28;20051;-72
2022/06/18 06:48:05;;;;;;;11.23;8.00;;;20.90;99.90;;;;;;5091629;28;20048;-70
2022/06/18 06:50:31;;;;;;;9.82;7.32;;;21.00;99.90;;;;;;5091911;28;20540;-70
2022/06/18 06:52:57;;;;;;;9.82;6.68;;;21.00;99.90;;;;;;5091808;28;20131;-70
2022/06/18 06:58:17;;;;;;;12.45;7.25;;;21.20;99.90;;;;;;5084723;28;20048;-70
2022/06/18 07:00:45;;;;;;;14.68;7.38;;;21.30;99.90;;;;;;5091395;28;20071;-70
2022/06/18 07:03:13;;;;;;;11.25;7.07;;;21.40;99.90;;;;;;5090971;28;20060;-70
2022/06/18 07:05:39;;;;;;;9.88;6.40;;;21.50;99.90;;;;;;5091205;28;20052;-70
2022/06/18 07:08:05;;;;;;;8.75;6.63;;;21.50;99.90;;;;;;5091128;28;20048;-71
2022/06/18 07:10:31;;;;;;;9.82;6.72;;;21.60;99.90;;;;;;5091257;28;20106;-70
2022/06/18 07:12:57;;;;;;;10.73;6.97;;;21.60;99.90;;;;;;5091279;28;20071;-70
2022/06/18 07:15:22;;;;;;;13.60;7.40;;;21.60;99.90;;;;;;5091023;28;20052;-70
2022/06/18 07:17:48;;;;;;;12.18;8.05;;;21.70;99.90;;;;;;5091370;28;20059;-70
2022/06/18 07:20:16;;;;;;;10.45;7.55;;;21.70;99.90;;;;;;5091170;28;20071;-71
2022/06/18 07:22:42;;;;;;;11.75;7.80;;;21.70;99.90;;;;;;5091298;28;20100;-70
2022/06/18 07:25:09;;;;;;;10.45;7.10;;;21.80;99.90;;;;;;5091042;28;20101;-70
2022/06/18 07:27:36;;;;;;;14.40;7.97;;;21.80;99.90;;;;;;5072913;28;20598;-70
2022/06/18 07:30:02;;;;;;;11.30;7.50;;;21.80;99.90;;;;;;5090856;28;20069;-70
2022/06/18 07:32:28;;;;;;;11.63;7.43;;;21.90;99.90;;;;;;5072846;28;20149;-70
2022/06/18 07:34:53;;;;;;;10.52;6.97;;;21.90;99.90;;;;;;5091073;28;20123;-70
2022/06/18 07:37:21;;;;;;;10.70;7.20;;;22.00;99.90;;;;;;5091132;28;20048;-70
2022/06/18 07:39:47;;;;;;;9.80;7.43;;;22.00;99.90;;;;;;5091030;28;20052;-70
2022/06/18 07:42:14;;;;;;;10.63;7.40;;;22.10;99.90;;;;;;5072740;28;20036;-70
2022/06/18 07:44:40;;;;;;;11.52;6.90;;;22.10;99.90;;;;;;5090910;28;20369;-70
2022/06/18 07:47:06;;;;;;;11.55;6.95;;;22.20;99.90;;;;;;5091073;28;20044;-70
2022/06/18 07:49:32;;;;;;;10.48;6.78;;;22.20;99.90;;;;;;5090983;28;20055;-70
2022/06/18 07:51:58;;;;;;;9.30;6.43;;;22.20;99.90;;;;;;5090776;28;20043;-70
2022/06/18 07:54:23;;;;;;;12.32;6.60;;;22.30;99.90;;;;;;5091114;28;20048;-70
2022/06/18 07:56:49;;;;;;;9.00;6.63;;;22.40;99.90;;;;;;5080766;28;20092;-70
2022/06/18 07:59:17;;;;;;;7.95;6.53;;;22.50;99.90;;;;;;5079947;28;20044;-70
2022/06/18 08:01:43;;;;;;;10.35;6.30;;;22.60;99.90;;;;;;5087099;28;20044;-71
2022/06/18 08:04:08;;;;;;;10.18;6.05;;;22.70;99.90;;;;;;5087554;28;20399;-71
2022/06/18 08:06:34;;;;;;;9.40;5.57;;;22.70;99.90;;;;;;5078526;28;20052;-71
2022/06/18 08:09:00;;;;;;;6.40;5.15;;;22.80;99.90;;;;;;5082394;28;20059;-70
2022/06/18 08:11:28;;;;;;;8.75;6.35;;;22.80;99.90;;;;;;5089280;28;20040;-70
2022/06/18 08:13:55;;;;;;;11.68;6.13;;;22.90;99.90;;;;;;5085755;28;20498;-71
2022/06/18 08:16:21;;;;;;;8.20;5.03;;;23.00;99.90;;;;;;5089635;28;20583;-70
2022/06/18 08:18:46;;;;;;;7.45;4.75;;;23.00;99.90;;;;;;5089727;28;20124;-70
2022/06/18 08:21:21;;;;;;;8.88;5.00;;;23.10;99.90;;;;;;5089086;28;20392;-69
2022/06/18 08:23:48;;;;;;;8.63;5.57;;;23.10;99.90;;;;;;5089721;28;20093;-71
2022/06/18 08:26:14;;;;;;;7.78;5.15;;;23.10;99.90;;;;;;5082318;28;20388;-71
2022/06/18 08:28:40;;;;;;;9.68;5.30;;;23.20;99.90;;;;;;5069794;28;20040;-71
2022/06/18 08:31:07;;;;;;;7.68;5.18;;;23.20;99.90;;;;;;5067767;28;20040;-72
2022/06/18 08:33:33;;;;;;;6.53;4.72;;;23.30;99.90;;;;;;5076605;28;20047;-70
2022/06/18 08:36:02;;;;;;;5.85;4.28;;;23.30;99.90;;;;;;5089533;28;20044;-70
2022/06/18 08:38:29;;;;;;;6.22;3.83;;;23.40;99.90;;;;;;5092271;28;20082;-71
2022/06/18 08:41:09;;;;;;;8.80;5.18;;;23.40;99.90;;;;;;5091765;28;20047;-69
2022/06/18 08:44:09;;;;;;;7.68;5.10;;;23.50;99.90;;;;;;5072513;28;20388;-70
2022/06/18 08:46:57;;;;;;;9.57;4.38;;;23.40;99.90;;;;;;5072915;28;20045;-70
2022/06/18 08:49:36;;;;;;;6.63;4.70;;;23.50;99.90;;;;;;5073242;28;20041;-69
2022/06/18 08:52:35;;;;;;;7.68;4.95;;;23.60;99.90;;;;;;5072915;28;20464;-70
2022/06/18 08:55:24;;;;;;;10.25;4.82;;;23.60;99.90;;;;;;5086204;28;20028;-70
2022/06/18 08:58:28;;;;;;;5.65;3.67;;;23.70;99.90;;;;;;5083853;28;20044;-70
2022/06/18 09:00:59;;;;;;;6.35;3.72;;;23.70;99.90;;;;;;5058779;28;20044;-70
2022/06/18 09:04:05;;;;;;;7.90;4.05;;;23.80;99.90;;;;;;5088251;28;20558;-70
2022/06/18 09:06:51;;;;;;;7.28;3.58;;;23.90;99.90;;;;;;5091672;28;20044;-71
2022/06/18 09:09:48;;;;;;;7.80;3.30;;;24.00;99.90;;;;;;5077828;28;20055;-70
2022/06/18 09:12:19;;;;;;;6.32;3.70;;;24.00;99.90;;;;;;5090605;28;20111;-71
2022/06/18 09:14:53;;;;;;;9.52;3.80;;;24.10;99.90;;;;;;5090801;28;20059;-71
2022/06/18 09:17:30;;;;;;;7.25;3.72;;;24.10;99.90;;;;;;5075082;28;20055;-71
2022/06/18 09:20:05;;;;;;;4.47;3.38;;;24.20;99.90;;;;;;5071648;28;20049;-71
2022/06/18 09:22:35;;;;;;;5.20;3.38;;;24.10;99.90;;;;;;5070618;28;20067;-70
2022/06/18 09:25:22;;;;;;;7.72;3.88;;;24.10;99.90;;;;;;5063814;28;20032;-70
2022/06/18 09:28:03;;;;;;;6.40;3.63;;;24.20;99.90;;;;;;5087239;28;20040;-70
2022/06/18 09:30:45;;;;;;;6.18;3.92;;;24.20;99.90;;;;;;5070199;28;20043;-74
2022/06/18 09:33:49;;;;;;;4.88;3.40;;;24.20;99.90;;;;;;5084601;28;20075;-70
2022/06/18 09:36:24;;;;;;;4.80;3.45;;;24.20;99.90;;;;;;5072577;28;20049;-70
2022/06/18 09:38:57;;;;;;;6.63;4.00;;;24.20;99.90;;;;;;5071257;28;20048;-70
2022/06/18 09:41:34;;;;;;;5.82;3.65;;;24.30;99.90;;;;;;5079269;28;20055;-70
2022/06/18 09:44:37;;;;;;;5.05;3.55;;;24.40;99.90;;;;;;5091412;28;20047;-70
2022/06/18 09:47:33;;;;;;;7.75;3.50;;;24.50;99.90;;;;;;5092296;28;20075;-70
2022/06/18 09:49:59;;;;;;;5.78;3.35;;;24.50;99.90;;;;;;5090660;28;20052;-70
2022/06/18 09:52:36;;;;;;;4.78;3.10;;;24.60;99.90;;;;;;5092159;28;20101;-70
2022/06/18 09:55:13;;;;;;;6.07;3.40;;;24.70;99.90;;;;;;5092241;28;20048;-70
2022/06/18 09:57:43;;;;;;;6.75;3.33;;;24.70;99.90;;;;;;5074174;28;20360;-70
2022/06/18 10:00:16;;;;;;;6.55;2.92;;;24.70;99.90;;;;;;5086119;28;20123;-70
2022/06/18 10:02:51;;;;;;;4.93;2.92;;;24.70;99.90;;;;;;5091583;28;20051;-70
2022/06/18 10:08:17;;;;;;;6.18;3.30;;;24.80;99.90;;;;;;5092132;28;20121;-70
2022/06/18 10:10:51;;;;;;;6.03;3.75;;;24.80;99.90;;;;;;5091788;28;20055;-71
2022/06/18 10:13:22;;;;;;;4.25;3.17;;;24.90;99.90;;;;;;5091224;28;20200;-73
2022/06/18 10:15:48;;;;;;;4.85;3.38;;;24.80;99.90;;;;;;5091444;28;20048;-71
2022/06/18 10:18:35;;;;;;;5.45;3.80;;;24.80;99.90;;;;;;5091584;28;20556;-70
2022/06/18 10:21:20;;;;;;;6.85;3.45;;;24.90;99.90;;;;;;5087116;28;20569;-70
2022/06/18 10:23:51;;;;;;;6.75;3.22;;;24.90;99.90;;;;;;5088204;28;20043;-71
2022/06/18 10:26:30;;;;;;;4.50;3.15;;;24.90;99.90;;;;;;5056040;28;20059;-70
2022/06/18 10:29:24;;;;;;;4.78;2.50;;;25.00;99.90;;;;;;5071089;28;20182;-69
2022/06/18 10:31:59;;;;;;;6.00;2.92;;;25.10;99.90;;;;;;5085416;28;20047;-69
2022/06/18 10:34:31;;;;;;;5.33;2.97;;;25.10;99.90;;;;;;5058234;28;20041;-70
2022/06/18 10:37:03;;;;;;;6.38;3.22;;;25.10;99.90;;;;;;5070846;28;20068;-71
2022/06/18 10:39:46;;;;;;;6.85;3.33;;;25.00;99.90;;;;;;5094694;28;20131;-72
2022/06/18 10:42:26;;;;;;;4.25;2.88;;;25.00;99.90;;;;;;5073551;28;20075;-70
2022/06/18 10:45:13;;;;;;;4.57;2.28;;;25.00;99.90;;;;;;5070535;28;20040;-70
2022/06/18 10:47:43;;;;;;;5.25;2.30;;;25.00;99.90;;;;;;5091037;28;20047;-71
2022/06/18 10:50:16;;;;;;;4.07;2.47;;;25.10;99.90;;;;;;5090574;28;20051;-71
2022/06/18 10:52:43;;;;;;;4.38;2.40;;;25.10;99.90;;;;;;5091279;28;20061;-71
2022/06/18 10:55:15;;;;;;;4.20;2.08;;;25.10;99.90;;;;;;5072723;28;20054;-71
2022/06/18 10:57:42;;;;;;;5.32;2.33;;;25.10;99.90;;;;;;5091159;28;20058;-71
2022/06/18 11:00:13;;;;;;;3.20;2.20;;;25.20;99.90;;;;;;5090165;28;20059;-71
2022/06/18 11:02:40;;;;;;;3.88;2.25;;;25.10;99.90;;;;;;5072528;28;20052;-71
2022/06/18 11:05:32;;;;;;;3.92;2.20;;;25.20;99.90;;;;;;5090703;28;20083;-71
2022/06/18 11:08:01;;;;;;;4.10;2.00;;;25.20;99.90;;;;;;5090576;28;20113;-71
2022/06/18 11:10:54;;;;;;;5.68;2.13;;;25.20;99.90;;;;;;5089740;28;20404;-70
2022/06/18 11:13:27;;;;;;;5.22;2.80;;;25.20;99.90;;;;;;5087989;28;20044;-69
2022/06/18 11:16:11;;;;;;;6.38;2.72;;;25.30;99.90;;;;;;5090674;28;20048;-70
2022/06/18 11:18:44;;;;;;;6.28;2.60;;;25.30;99.90;;;;;;5073830;28;20188;-70
2022/06/18 11:21:31;;;;;;;5.68;2.75;;;25.40;99.90;;;;;;5090155;28;20036;-70
2022/06/18 11:24:05;;;;;;;4.60;2.72;;;25.50;99.90;;;;;;5083633;28;20476;-70
2022/06/18 11:26:31;;;;;;;4.28;2.70;;;25.60;99.90;;;;;;5060465;28;20049;-70
2022/06/18 11:29:07;;;;;;;3.53;2.40;;;25.60;99.90;;;;;;5068585;28;20448;-73
2022/06/18 11:31:35;;;;;;;;;;;25.50;99.90;;;;;;5060237;28;20048;-74
2022/06/18 11:34:05;;;;;;;5.15;2.22;;;25.50;99.90;;;;;;5073434;28;19984;-71
2022/06/18 11:36:42;;;;;;;4.05;2.20;;;25.40;99.90;;;;;;5069182;28;20040;-71
2022/06/18 11:39:25;;;;;;;5.68;2.28;;;25.40;99.90;;;;;;5068959;28;20080;-71
2022/06/18 11:41:58;;;;;;;4.43;2.13;;;25.40;99.90;;;;;;5074788;28;20055;-71
2022/06/18 11:44:31;;;;;;;4.45;2.40;;;25.50;99.90;;;;;;5072364;28;20105;-71
2022/06/18 11:47:32;;;;;;;4.68;2.42;;;25.50;99.90;;;;;;5068632;28;20181;-70
2022/06/18 11:50:06;;;;;;;2.97;1.90;;;25.60;99.90;;;;;;5072887;28;20060;-69
2022/06/18 11:52:31;;;;;;;3.30;2.10;;;25.60;99.90;;;;;;5063850;28;20455;-70
2022/06/18 11:55:15;;;;;;;3.85;2.00;;;25.60;99.90;;;;;;5088744;28;20036;-70
2022/06/18 11:57:44;;;;;;;5.50;2.00;;;25.50;99.90;;;;;;5088844;28;20541;-71
2022/06/18 12:00:21;;;;;;;4.90;2.45;;;25.60;99.90;;;;;;5073032;28;20470;-72
2022/06/18 12:02:56;;;;;;;3.92;2.20;;;25.60;99.90;;;;;;5079222;28;20080;-71
2022/06/18 12:05:43;;;;;;;5.15;2.50;;;25.50;99.90;;;;;;5079864;28;20475;-70
2022/06/18 12:08:15;;;;;;;4.85;2.17;;;25.50;99.90;;;;;;5071207;28;20055;-70
2022/06/18 12:10:47;;;;;;;4.82;2.40;;;25.30;99.90;;;;;;5088260;28;20483;-70
2022/06/18 12:13:19;;;;;;;3.67;2.60;;;25.30;99.90;;;;;;5056543;28;20130;-70
2022/06/18 12:16:03;;;;;;;4.05;2.17;;;25.30;99.90;;;;;;5092274;28;20052;-72
2022/06/18 12:19:06;;;;;;;4.45;2.10;;;25.40;99.90;;;;;;5092759;28;20055;-70
2022/06/18 12:21:43;;;;;;;4.05;2.00;;;25.30;99.90;;;;;;5071039;28;20043;-70
2022/06/18 12:24:24;;;;;;;3.10;2.05;;;25.30;99.90;;;;;;5088002;28;20044;-73
2022/06/18 12:27:08;;;;;;;5.05;2.15;;;25.30;99.90;;;;;;5089770;28;20057;-69
2022/06/18 12:29:54;;;;;;;5.28;2.20;;;25.30;99.90;;;;;;5092442;28;20407;-70
2022/06/18 12:32:48;;;;;;;4.22;2.10;;;25.30;99.90;;;;;;5091504;28;20109;-78
2022/06/18 12:35:47;;;;;;;2.50;1.85;;;25.30;99.90;;;;;;5092070;28;20044;-71
2022/06/18 12:38:47;;;;;;;2.70;1.90;;;25.30;99.90;;;;;;5092256;28;20047;-71
2022/06/18 12:41:40;;;;;;;4.75;2.05;;;25.30;99.90;;;;;;5034616;28;20101;-72
2022/06/18 12:44:29;;;;;;;2.95;1.80;;;25.30;99.90;;;;;;5042362;28;20060;-71
2022/06/18 12:47:20;;;;;;;3.13;1.60;;;25.30;99.90;;;;;;5067951;28;20036;-72
2022/06/18 12:50:05;;;;;;;3.47;1.80;;;25.20;99.90;;;;;;5073362;28;20416;-71
2022/06/18 12:52:43;;;;;;;4.93;1.85;;;25.10;99.90;;;;;;5092237;28;20085;-72
2022/06/18 12:55:15;;;;;;;3.20;1.65;;;25.10;99.90;;;;;;5090143;28;20061;-70
2022/06/18 12:58:09;;;;;;;2.03;1.60;;;25.10;99.90;;;;;;5057570;28;20089;-71
2022/06/18 13:00:46;;;;;;;3.47;1.85;;;25.10;99.90;;;;;;5090687;28;20132;-71
2022/06/18 13:03:28;;;;;;;3.30;1.48;;;25.10;99.90;;;;;;5091201;28;20083;-72
2022/06/18 13:06:14;;;;;;;2.10;1.40;;;25.10;99.90;;;;;;5092153;28;20052;-72
2022/06/18 13:08:50;;;;;;;3.70;1.63;;;25.10;99.90;;;;;;5091929;28;20412;-70
2022/06/18 13:11:41;;;;;;;2.92;1.65;;;25.20;99.90;;;;;;5086654;28;20123;-71
2022/06/18 13:14:34;;;;;;;2.53;1.23;;;25.20;99.90;;;;;;5091999;28;20032;-71
2022/06/18 13:17:07;;;;;;;2.28;1.30;;;25.20;99.90;;;;;;5091115;28;20047;-72
2022/06/18 13:19:42;;;;;;;3.70;1.38;;;25.10;99.90;;;;;;5092280;28;20055;-71
2022/06/18 13:22:08;;;;;;;2.60;1.27;;;25.10;99.90;;;;;;5092339;28;20200;-71
2022/06/18 13:30:35;;;;;;;3.53;1.67;;;24.80;99.90;;;;;;5088913;28;20604;-71
2022/06/18 13:33:14;;;;;;;2.33;1.20;;;24.80;99.90;;;;;;5091461;28;20460;-70